sensor_id;sensor_type;location;lat;lon;timestamp;P1;durP1;ratioP1;P2;durP2;ratioP2
69594;SDS011;56800;52.142;5.364;2022-12-01T00:01:14;61.03;;;23.55;;
69594;SDS011;56800;52.142;5.364;2022-12-01T00:03:41;56.40;;;24.60;;
69594;SDS011;56800;52.142;5.364;2022-12-01T00:06:12;59.65;;;23.20;;
69594;SDS011;56800;52.142;5.364;2022-12-01T00:08:44;55.30;;;23.60;;
69594;SDS011;56800;52.142;5.364;2022-12-01T00:11:31;58.60;;;24.55;;
69594;SDS011;56800;52.142;5.364;2022-12-01T00:13:59;58.85;;;24.80;;
69594;SDS011;56800;52.142;5.364;2022-12-01T00:16:26;61.87;;;24.17;;
69594;SDS011;56800;52.142;5.364;2022-12-01T00:18:53;60.38;;;24.02;;
69594;SDS011;56800;52.142;5.364;2022-12-01T00:21:21;59.42;;;24.63;;
69594;SDS011;56800;52.142;5.364;2022-12-01T00:23:50;60.60;;;24.65;;
69594;SDS011;56800;52.142;5.364;2022-12-01T00:26:18;60.10;;;25.00;;
69594;SDS011;56800;52.142;5.364;2022-12-01T00:28:52;67.83;;;24.30;;
69594;SDS011;56800;52.142;5.364;2022-12-01T00:31:20;59.33;;;24.42;;
69594;SDS011;56800;52.142;5.364;2022-12-01T00:33:47;56.95;;;23.02;;
69594;SDS011;56800;52.142;5.364;2022-12-01T00:36:13;56.78;;;23.67;;
69594;SDS011;56800;52.142;5.364;2022-12-01T00:38:40;56.60;;;24.58;;
69594;SDS011;56800;52.142;5.364;2022-12-01T00:41:07;58.97;;;23.80;;
69594;SDS011;56800;52.142;5.364;2022-12-01T00:43:33;55.17;;;23.88;;
69594;SDS011;56800;52.142;5.364;2022-12-01T00:46:00;57.83;;;23.58;;
69594;SDS011;56800;52.142;5.364;2022-12-01T00:48:27;51.15;;;23.08;;
69594;SDS011;56800;52.142;5.364;2022-12-01T00:50:54;55.50;;;23.13;;
69594;SDS011;56800;52.142;5.364;2022-12-01T00:53:21;57.00;;;23.00;;
69594;SDS011;56800;52.142;5.364;2022-12-01T00:55:49;54.65;;;22.83;;
69594;SDS011;56800;52.142;5.364;2022-12-01T00:58:16;53.83;;;23.65;;
69594;SDS011;56800;52.142;5.364;2022-12-01T01:00:42;46.97;;;22.33;;
69594;SDS011;56800;52.142;5.364;2022-12-01T01:03:09;58.05;;;22.90;;
69594;SDS011;56800;52.142;5.364;2022-12-01T01:05:37;51.97;;;22.73;;
69594;SDS011;56800;52.142;5.364;2022-12-01T01:08:05;51.97;;;21.77;;
69594;SDS011;56800;52.142;5.364;2022-12-01T01:10:39;49.95;;;21.35;;
69594;SDS011;56800;52.142;5.364;2022-12-01T01:13:07;53.17;;;21.90;;
69594;SDS011;56800;52.142;5.364;2022-12-01T01:15:35;49.58;;;22.23;;
69594;SDS011;56800;52.142;5.364;2022-12-01T01:18:01;48.63;;;21.67;;
69594;SDS011;56800;52.142;5.364;2022-12-01T01:20:28;49.03;;;22.23;;
69594;SDS011;56800;52.142;5.364;2022-12-01T01:22:56;50.05;;;22.42;;
69594;SDS011;56800;52.142;5.364;2022-12-01T01:25:23;51.67;;;22.92;;
69594;SDS011;56800;52.142;5.364;2022-12-01T01:27:50;49.85;;;22.30;;
69594;SDS011;56800;52.142;5.364;2022-12-01T01:30:16;51.97;;;22.07;;
69594;SDS011;56800;52.142;5.364;2022-12-01T01:32:43;52.13;;;22.23;;
69594;SDS011;56800;52.142;5.364;2022-12-01T01:35:10;53.05;;;23.13;;
69594;SDS011;56800;52.142;5.364;2022-12-01T01:37:37;48.70;;;21.75;;
69594;SDS011;56800;52.142;5.364;2022-12-01T01:40:03;48.67;;;22.20;;
69594;SDS011;56800;52.142;5.364;2022-12-01T01:42:31;50.27;;;22.30;;
69594;SDS011;56800;52.142;5.364;2022-12-01T01:44:57;46.25;;;21.60;;
69594;SDS011;56800;52.142;5.364;2022-12-01T01:50:02;53.17;;;22.70;;
69594;SDS011;56800;52.142;5.364;2022-12-01T01:52:34;50.85;;;23.15;;
69594;SDS011;56800;52.142;5.364;2022-12-01T01:55:03;59.93;;;23.93;;
69594;SDS011;56800;52.142;5.364;2022-12-01T01:57:31;49.60;;;21.38;;
69594;SDS011;56800;52.142;5.364;2022-12-01T02:00:04;55.92;;;23.83;;
69594;SDS011;56800;52.142;5.364;2022-12-01T02:02:36;56.80;;;23.65;;
69594;SDS011;56800;52.142;5.364;2022-12-01T02:05:06;55.15;;;22.10;;
69594;SDS011;56800;52.142;5.364;2022-12-01T02:07:39;55.87;;;23.50;;
69594;SDS011;56800;52.142;5.364;2022-12-01T02:10:08;51.70;;;21.65;;
69594;SDS011;56800;52.142;5.364;2022-12-01T02:18:32;61.30;;;24.90;;
69594;SDS011;56800;52.142;5.364;2022-12-01T02:26:51;57.20;;;22.55;;
69594;SDS011;56800;52.142;5.364;2022-12-01T02:29:57;61.63;;;23.83;;
69594;SDS011;56800;52.142;5.364;2022-12-01T02:38:20;57.88;;;22.77;;
69594;SDS011;56800;52.142;5.364;2022-12-01T02:46:38;57.55;;;22.35;;
69594;SDS011;56800;52.142;5.364;2022-12-01T02:49:13;57.07;;;23.13;;
69594;SDS011;56800;52.142;5.364;2022-12-01T02:51:43;65.75;;;23.27;;
69594;SDS011;56800;52.142;5.364;2022-12-01T02:54:18;60.15;;;22.85;;
69594;SDS011;56800;52.142;5.364;2022-12-01T02:56:52;63.55;;;22.70;;
69594;SDS011;56800;52.142;5.364;2022-12-01T02:59:19;56.17;;;24.25;;
69594;SDS011;56800;52.142;5.364;2022-12-01T03:04:40;58.28;;;23.17;;
69594;SDS011;56800;52.142;5.364;2022-12-01T03:13:00;59.42;;;21.75;;
69594;SDS011;56800;52.142;5.364;2022-12-01T03:15:54;53.27;;;21.77;;
69594;SDS011;56800;52.142;5.364;2022-12-01T03:18:49;56.05;;;22.83;;
69594;SDS011;56800;52.142;5.364;2022-12-01T03:21:48;55.47;;;22.90;;
69594;SDS011;56800;52.142;5.364;2022-12-01T03:24:28;55.25;;;22.10;;
69594;SDS011;56800;52.142;5.364;2022-12-01T03:27:00;53.88;;;21.52;;
69594;SDS011;56800;52.142;5.364;2022-12-01T03:29:30;49.03;;;20.73;;
69594;SDS011;56800;52.142;5.364;2022-12-01T03:31:59;56.88;;;22.33;;
69594;SDS011;56800;52.142;5.364;2022-12-01T03:34:33;56.63;;;22.42;;
69594;SDS011;56800;52.142;5.364;2022-12-01T03:37:19;53.20;;;21.65;;
69594;SDS011;56800;52.142;5.364;2022-12-01T03:40:36;57.78;;;22.40;;
69594;SDS011;56800;52.142;5.364;2022-12-01T03:43:08;55.83;;;21.40;;
69594;SDS011;56800;52.142;5.364;2022-12-01T03:45:52;61.72;;;22.08;;
69594;SDS011;56800;52.142;5.364;2022-12-01T03:48:24;54.92;;;21.88;;
69594;SDS011;56800;52.142;5.364;2022-12-01T03:51:05;54.53;;;21.13;;
69594;SDS011;56800;52.142;5.364;2022-12-01T03:53:51;50.42;;;20.88;;
69594;SDS011;56800;52.142;5.364;2022-12-01T03:56:58;53.53;;;21.80;;
69594;SDS011;56800;52.142;5.364;2022-12-01T03:59:31;58.83;;;22.33;;
69594;SDS011;56800;52.142;5.364;2022-12-01T04:09:49;58.30;;;21.17;;
69594;SDS011;56800;52.142;5.364;2022-12-01T04:12:24;56.47;;;21.50;;
69594;SDS011;56800;52.142;5.364;2022-12-01T04:14:59;52.85;;;21.55;;
69594;SDS011;56800;52.142;5.364;2022-12-01T04:17:31;52.08;;;22.25;;
69594;SDS011;56800;52.142;5.364;2022-12-01T04:20:01;56.15;;;22.27;;
69594;SDS011;56800;52.142;5.364;2022-12-01T04:22:44;54.65;;;22.38;;
69594;SDS011;56800;52.142;5.364;2022-12-01T04:25:14;55.90;;;22.00;;
69594;SDS011;56800;52.142;5.364;2022-12-01T04:27:48;53.53;;;21.95;;
69594;SDS011;56800;52.142;5.364;2022-12-01T04:30:20;60.72;;;22.70;;
69594;SDS011;56800;52.142;5.364;2022-12-01T04:32:50;62.20;;;24.65;;
69594;SDS011;56800;52.142;5.364;2022-12-01T04:35:18;54.88;;;23.23;;
69594;SDS011;56800;52.142;5.364;2022-12-01T04:37:55;60.13;;;23.03;;
69594;SDS011;56800;52.142;5.364;2022-12-01T04:40:37;54.85;;;22.27;;
69594;SDS011;56800;52.142;5.364;2022-12-01T04:43:19;68.57;;;24.33;;
69594;SDS011;56800;52.142;5.364;2022-12-01T04:45:52;64.28;;;22.80;;
69594;SDS011;56800;52.142;5.364;2022-12-01T04:48:18;58.10;;;23.17;;
69594;SDS011;56800;52.142;5.364;2022-12-01T04:50:47;59.83;;;22.73;;
69594;SDS011;56800;52.142;5.364;2022-12-01T04:53:14;61.97;;;22.73;;
69594;SDS011;56800;52.142;5.364;2022-12-01T04:55:40;55.75;;;23.40;;
69594;SDS011;56800;52.142;5.364;2022-12-01T04:58:07;56.22;;;22.55;;
69594;SDS011;56800;52.142;5.364;2022-12-01T05:00:34;56.15;;;21.80;;
69594;SDS011;56800;52.142;5.364;2022-12-01T05:03:00;55.40;;;21.37;;
69594;SDS011;56800;52.142;5.364;2022-12-01T05:05:27;58.28;;;23.05;;
69594;SDS011;56800;52.142;5.364;2022-12-01T05:07:54;64.65;;;23.08;;
69594;SDS011;56800;52.142;5.364;2022-12-01T05:10:23;64.93;;;23.50;;
69594;SDS011;56800;52.142;5.364;2022-12-01T05:12:50;64.70;;;23.35;;
69594;SDS011;56800;52.142;5.364;2022-12-01T05:15:17;61.90;;;23.80;;
69594;SDS011;56800;52.142;5.364;2022-12-01T05:17:43;61.80;;;21.85;;
69594;SDS011;56800;52.142;5.364;2022-12-01T05:20:13;57.00;;;23.20;;
69594;SDS011;56800;52.142;5.364;2022-12-01T05:23:03;56.90;;;21.35;;
69594;SDS011;56800;52.142;5.364;2022-12-01T05:25:32;58.72;;;21.48;;
69594;SDS011;56800;52.142;5.364;2022-12-01T05:27:59;52.70;;;21.37;;
69594;SDS011;56800;52.142;5.364;2022-12-01T05:30:26;56.22;;;21.58;;
69594;SDS011;56800;52.142;5.364;2022-12-01T05:32:54;59.78;;;22.80;;
69594;SDS011;56800;52.142;5.364;2022-12-01T05:35:20;60.17;;;22.60;;
69594;SDS011;56800;52.142;5.364;2022-12-01T05:37:47;69.00;;;23.65;;
69594;SDS011;56800;52.142;5.364;2022-12-01T05:40:14;60.87;;;22.97;;
69594;SDS011;56800;52.142;5.364;2022-12-01T05:42:40;62.75;;;23.77;;
69594;SDS011;56800;52.142;5.364;2022-12-01T05:45:07;63.38;;;22.65;;
69594;SDS011;56800;52.142;5.364;2022-12-01T05:47:34;55.47;;;20.55;;
69594;SDS011;56800;52.142;5.364;2022-12-01T05:50:00;56.50;;;21.55;;
69594;SDS011;56800;52.142;5.364;2022-12-01T05:52:32;53.30;;;21.43;;
69594;SDS011;56800;52.142;5.364;2022-12-01T05:55:00;61.10;;;21.38;;
69594;SDS011;56800;52.142;5.364;2022-12-01T05:57:29;67.75;;;23.13;;
69594;SDS011;56800;52.142;5.364;2022-12-01T05:59:56;54.17;;;22.77;;
69594;SDS011;56800;52.142;5.364;2022-12-01T06:02:23;61.67;;;23.33;;
69594;SDS011;56800;52.142;5.364;2022-12-01T06:04:51;62.20;;;22.83;;
69594;SDS011;56800;52.142;5.364;2022-12-01T06:07:19;69.60;;;23.33;;
69594;SDS011;56800;52.142;5.364;2022-12-01T06:09:46;67.05;;;23.42;;
69594;SDS011;56800;52.142;5.364;2022-12-01T06:12:13;65.78;;;24.20;;
69594;SDS011;56800;52.142;5.364;2022-12-01T06:14:40;61.28;;;23.77;;
69594;SDS011;56800;52.142;5.364;2022-12-01T06:17:07;62.60;;;22.30;;
69594;SDS011;56800;52.142;5.364;2022-12-01T06:19:33;73.43;;;24.17;;
69594;SDS011;56800;52.142;5.364;2022-12-01T06:22:00;60.70;;;23.38;;
69594;SDS011;56800;52.142;5.364;2022-12-01T06:24:27;63.05;;;22.27;;
69594;SDS011;56800;52.142;5.364;2022-12-01T06:26:54;62.88;;;23.60;;
69594;SDS011;56800;52.142;5.364;2022-12-01T06:29:20;66.93;;;22.53;;
69594;SDS011;56800;52.142;5.364;2022-12-01T06:31:47;61.45;;;22.08;;
69594;SDS011;56800;52.142;5.364;2022-12-01T06:34:13;58.97;;;22.75;;
69594;SDS011;56800;52.142;5.364;2022-12-01T06:36:40;55.90;;;22.20;;
69594;SDS011;56800;52.142;5.364;2022-12-01T06:39:07;55.75;;;20.65;;
69594;SDS011;56800;52.142;5.364;2022-12-01T06:41:35;50.37;;;20.43;;
69594;SDS011;56800;52.142;5.364;2022-12-01T06:44:02;64.15;;;22.98;;
69594;SDS011;56800;52.142;5.364;2022-12-01T06:46:30;59.90;;;22.85;;
69594;SDS011;56800;52.142;5.364;2022-12-01T06:48:56;69.50;;;22.48;;
69594;SDS011;56800;52.142;5.364;2022-12-01T06:51:23;58.17;;;21.73;;
69594;SDS011;56800;52.142;5.364;2022-12-01T06:53:53;55.80;;;21.93;;
69594;SDS011;56800;52.142;5.364;2022-12-01T06:56:20;58.45;;;22.20;;
69594;SDS011;56800;52.142;5.364;2022-12-01T06:58:48;58.72;;;22.88;;
69594;SDS011;56800;52.142;5.364;2022-12-01T07:01:16;59.45;;;22.42;;
69594;SDS011;56800;52.142;5.364;2022-12-01T07:03:46;66.35;;;23.70;;
69594;SDS011;56800;52.142;5.364;2022-12-01T07:06:14;58.97;;;22.07;;
69594;SDS011;56800;52.142;5.364;2022-12-01T07:08:41;63.67;;;23.75;;
69594;SDS011;56800;52.142;5.364;2022-12-01T07:11:08;64.55;;;24.17;;
69594;SDS011;56800;52.142;5.364;2022-12-01T07:13:40;69.13;;;24.40;;
69594;SDS011;56800;52.142;5.364;2022-12-01T07:16:08;67.78;;;22.52;;
69594;SDS011;56800;52.142;5.364;2022-12-01T07:18:34;67.50;;;23.60;;
69594;SDS011;56800;52.142;5.364;2022-12-01T07:21:03;72.22;;;23.58;;
69594;SDS011;56800;52.142;5.364;2022-12-01T07:23:32;75.10;;;25.20;;
69594;SDS011;56800;52.142;5.364;2022-12-01T07:28:30;63.30;;;22.77;;
69594;SDS011;56800;52.142;5.364;2022-12-01T07:31:10;72.10;;;23.73;;
69594;SDS011;56800;52.142;5.364;2022-12-01T07:33:39;77.50;;;24.20;;
69594;SDS011;56800;52.142;5.364;2022-12-01T07:36:06;66.22;;;24.98;;
69594;SDS011;56800;52.142;5.364;2022-12-01T07:38:34;71.85;;;24.35;;
69594;SDS011;56800;52.142;5.364;2022-12-01T07:41:02;75.07;;;24.15;;
69594;SDS011;56800;52.142;5.364;2022-12-01T07:43:33;65.00;;;23.73;;
69594;SDS011;56800;52.142;5.364;2022-12-01T07:46:07;67.82;;;24.48;;
69594;SDS011;56800;52.142;5.364;2022-12-01T07:48:36;76.57;;;25.45;;
69594;SDS011;56800;52.142;5.364;2022-12-01T07:51:04;95.72;;;25.42;;
69594;SDS011;56800;52.142;5.364;2022-12-01T07:53:33;74.38;;;26.13;;
69594;SDS011;56800;52.142;5.364;2022-12-01T07:56:00;78.40;;;25.73;;
69594;SDS011;56800;52.142;5.364;2022-12-01T07:58:33;69.05;;;25.45;;
69594;SDS011;56800;52.142;5.364;2022-12-01T08:01:10;75.60;;;26.13;;
69594;SDS011;56800;52.142;5.364;2022-12-01T08:03:44;76.20;;;25.58;;
69594;SDS011;56800;52.142;5.364;2022-12-01T08:06:16;77.50;;;26.02;;
69594;SDS011;56800;52.142;5.364;2022-12-01T08:08:44;78.93;;;26.43;;
69594;SDS011;56800;52.142;5.364;2022-12-01T08:11:12;71.28;;;26.08;;
69594;SDS011;56800;52.142;5.364;2022-12-01T08:13:40;76.05;;;24.98;;
69594;SDS011;56800;52.142;5.364;2022-12-01T08:16:09;65.18;;;24.08;;
69594;SDS011;56800;52.142;5.364;2022-12-01T08:18:37;72.25;;;24.98;;
69594;SDS011;56800;52.142;5.364;2022-12-01T08:21:05;69.17;;;24.83;;
69594;SDS011;56800;52.142;5.364;2022-12-01T08:23:33;71.78;;;24.90;;
69594;SDS011;56800;52.142;5.364;2022-12-01T08:26:03;77.30;;;24.98;;
69594;SDS011;56800;52.142;5.364;2022-12-01T08:28:31;71.53;;;25.52;;
69594;SDS011;56800;52.142;5.364;2022-12-01T08:31:07;70.15;;;25.73;;
69594;SDS011;56800;52.142;5.364;2022-12-01T08:33:38;64.37;;;24.03;;
69594;SDS011;56800;52.142;5.364;2022-12-01T08:36:05;77.70;;;26.90;;
69594;SDS011;56800;52.142;5.364;2022-12-01T08:38:32;81.63;;;27.17;;
69594;SDS011;56800;52.142;5.364;2022-12-01T08:41:03;77.43;;;25.65;;
69594;SDS011;56800;52.142;5.364;2022-12-01T08:43:31;72.78;;;25.55;;
69594;SDS011;56800;52.142;5.364;2022-12-01T08:46:18;75.67;;;26.47;;
69594;SDS011;56800;52.142;5.364;2022-12-01T08:48:45;82.43;;;27.48;;
69594;SDS011;56800;52.142;5.364;2022-12-01T08:51:14;87.20;;;27.45;;
69594;SDS011;56800;52.142;5.364;2022-12-01T08:53:44;78.68;;;28.05;;
69594;SDS011;56800;52.142;5.364;2022-12-01T08:56:14;76.88;;;29.20;;
69594;SDS011;56800;52.142;5.364;2022-12-01T08:58:47;78.50;;;27.00;;
69594;SDS011;56800;52.142;5.364;2022-12-01T09:01:14;78.75;;;27.42;;
69594;SDS011;56800;52.142;5.364;2022-12-01T09:03:41;79.45;;;28.10;;
69594;SDS011;56800;52.142;5.364;2022-12-01T09:06:13;75.47;;;28.63;;
69594;SDS011;56800;52.142;5.364;2022-12-01T09:08:41;78.97;;;31.02;;
69594;SDS011;56800;52.142;5.364;2022-12-01T09:11:10;73.70;;;27.60;;
69594;SDS011;56800;52.142;5.364;2022-12-01T09:13:38;77.43;;;28.17;;
69594;SDS011;56800;52.142;5.364;2022-12-01T09:16:07;76.97;;;29.63;;
69594;SDS011;56800;52.142;5.364;2022-12-01T09:18:37;70.80;;;26.85;;
69594;SDS011;56800;52.142;5.364;2022-12-01T09:23:45;77.93;;;28.10;;
69594;SDS011;56800;52.142;5.364;2022-12-01T09:26:12;75.40;;;28.30;;
69594;SDS011;56800;52.142;5.364;2022-12-01T09:28:46;77.38;;;28.80;;
69594;SDS011;56800;52.142;5.364;2022-12-01T09:31:34;73.45;;;27.40;;
69594;SDS011;56800;52.142;5.364;2022-12-01T09:34:03;71.65;;;27.50;;
69594;SDS011;56800;52.142;5.364;2022-12-01T09:36:33;72.57;;;28.17;;
69594;SDS011;56800;52.142;5.364;2022-12-01T09:39:01;76.88;;;29.08;;
69594;SDS011;56800;52.142;5.364;2022-12-01T09:41:39;64.63;;;26.77;;
69594;SDS011;56800;52.142;5.364;2022-12-01T09:44:29;68.93;;;26.63;;
69594;SDS011;56800;52.142;5.364;2022-12-01T09:47:20;69.05;;;27.50;;
69594;SDS011;56800;52.142;5.364;2022-12-01T09:52:45;68.43;;;28.10;;
69594;SDS011;56800;52.142;5.364;2022-12-01T09:55:16;63.20;;;26.58;;
69594;SDS011;56800;52.142;5.364;2022-12-01T09:57:45;65.38;;;27.90;;
69594;SDS011;56800;52.142;5.364;2022-12-01T10:00:18;62.20;;;27.35;;
69594;SDS011;56800;52.142;5.364;2022-12-01T10:05:35;64.88;;;27.13;;
69594;SDS011;56800;52.142;5.364;2022-12-01T10:08:33;60.35;;;27.15;;
69594;SDS011;56800;52.142;5.364;2022-12-01T10:11:12;61.13;;;27.27;;
69594;SDS011;56800;52.142;5.364;2022-12-01T10:13:52;65.05;;;28.85;;
69594;SDS011;56800;52.142;5.364;2022-12-01T10:16:21;68.70;;;28.80;;
69594;SDS011;56800;52.142;5.364;2022-12-01T10:21:43;66.55;;;28.58;;
69594;SDS011;56800;52.142;5.364;2022-12-01T10:24:35;69.43;;;29.23;;
69594;SDS011;56800;52.142;5.364;2022-12-01T10:27:33;68.43;;;29.20;;
69594;SDS011;56800;52.142;5.364;2022-12-01T10:30:05;64.70;;;28.97;;
69594;SDS011;56800;52.142;5.364;2022-12-01T10:35:21;63.50;;;29.08;;
69594;SDS011;56800;52.142;5.364;2022-12-01T10:37:52;68.97;;;31.17;;
69594;SDS011;56800;52.142;5.364;2022-12-01T10:40:23;68.07;;;30.00;;
69594;SDS011;56800;52.142;5.364;2022-12-01T10:42:52;68.53;;;30.17;;
69594;SDS011;56800;52.142;5.364;2022-12-01T10:45:23;65.25;;;29.50;;
69594;SDS011;56800;52.142;5.364;2022-12-01T10:55:48;58.57;;;28.57;;
69594;SDS011;56800;52.142;5.364;2022-12-01T10:58:21;60.00;;;28.08;;
69594;SDS011;56800;52.142;5.364;2022-12-01T11:00:55;62.67;;;28.50;;
69594;SDS011;56800;52.142;5.364;2022-12-01T11:03:26;62.97;;;26.63;;
69594;SDS011;56800;52.142;5.364;2022-12-01T11:06:02;62.05;;;27.88;;
69594;SDS011;56800;52.142;5.364;2022-12-01T11:08:44;56.97;;;27.00;;
69594;SDS011;56800;52.142;5.364;2022-12-01T11:11:23;65.95;;;27.55;;
69594;SDS011;56800;52.142;5.364;2022-12-01T11:13:59;59.55;;;28.02;;
69594;SDS011;56800;52.142;5.364;2022-12-01T11:16:33;58.25;;;27.05;;
69594;SDS011;56800;52.142;5.364;2022-12-01T11:19:36;60.83;;;28.05;;
69594;SDS011;56800;52.142;5.364;2022-12-01T11:22:01;58.33;;;27.10;;
69594;SDS011;56800;52.142;5.364;2022-12-01T11:24:45;57.20;;;26.80;;
69594;SDS011;56800;52.142;5.364;2022-12-01T11:27:23;56.20;;;27.02;;
69594;SDS011;56800;52.142;5.364;2022-12-01T11:30:05;52.97;;;25.73;;
69594;SDS011;56800;52.142;5.364;2022-12-01T11:32:50;57.35;;;26.17;;
69594;SDS011;56800;52.142;5.364;2022-12-01T11:35:32;55.17;;;26.53;;
69594;SDS011;56800;52.142;5.364;2022-12-01T11:38:02;50.78;;;25.58;;
69594;SDS011;56800;52.142;5.364;2022-12-01T11:40:52;50.53;;;26.45;;
69594;SDS011;56800;52.142;5.364;2022-12-01T11:43:42;51.90;;;26.23;;
69594;SDS011;56800;52.142;5.364;2022-12-01T11:46:33;53.78;;;26.55;;
69594;SDS011;56800;52.142;5.364;2022-12-01T11:49:16;50.77;;;26.13;;
69594;SDS011;56800;52.142;5.364;2022-12-01T11:51:45;55.05;;;26.45;;
69594;SDS011;56800;52.142;5.364;2022-12-01T11:54:14;52.47;;;27.45;;
69594;SDS011;56800;52.142;5.364;2022-12-01T11:56:43;56.45;;;28.25;;
69594;SDS011;56800;52.142;5.364;2022-12-01T12:01:46;53.33;;;26.40;;
69594;SDS011;56800;52.142;5.364;2022-12-01T12:04:43;51.90;;;25.98;;
69594;SDS011;56800;52.142;5.364;2022-12-01T12:16:42;48.13;;;24.83;;
69594;SDS011;56800;52.142;5.364;2022-12-01T12:18:49;52.75;;;25.75;;
69594;SDS011;56800;52.142;5.364;2022-12-01T12:21:29;49.42;;;25.73;;
69594;SDS011;56800;52.142;5.364;2022-12-01T12:26:51;49.20;;;26.08;;
69594;SDS011;56800;52.142;5.364;2022-12-01T12:32:10;49.92;;;25.05;;
69594;SDS011;56800;52.142;5.364;2022-12-01T12:40:38;48.40;;;24.88;;
69594;SDS011;56800;52.142;5.364;2022-12-01T12:51:48;44.45;;;22.17;;
69594;SDS011;56800;52.142;5.364;2022-12-01T13:00:13;44.60;;;22.60;;
69594;SDS011;56800;52.142;5.364;2022-12-01T13:02:45;46.35;;;22.90;;
69594;SDS011;56800;52.142;5.364;2022-12-01T13:05:24;44.65;;;22.77;;
69594;SDS011;56800;52.142;5.364;2022-12-01T13:08:03;50.03;;;23.52;;
69594;SDS011;56800;52.142;5.364;2022-12-01T13:10:38;43.50;;;22.53;;
69594;SDS011;56800;52.142;5.364;2022-12-01T13:13:23;44.00;;;23.35;;
69594;SDS011;56800;52.142;5.364;2022-12-01T13:16:00;48.92;;;25.08;;
69594;SDS011;56800;52.142;5.364;2022-12-01T13:18:36;44.38;;;23.30;;
69594;SDS011;56800;52.142;5.364;2022-12-01T13:21:04;49.63;;;24.95;;
69594;SDS011;56800;52.142;5.364;2022-12-01T13:23:32;45.27;;;23.67;;
69594;SDS011;56800;52.142;5.364;2022-12-01T13:26:02;45.42;;;23.63;;
69594;SDS011;56800;52.142;5.364;2022-12-01T13:28:34;49.22;;;24.42;;
69594;SDS011;56800;52.142;5.364;2022-12-01T13:31:14;44.13;;;23.45;;
69594;SDS011;56800;52.142;5.364;2022-12-01T13:34:03;46.80;;;23.33;;
69594;SDS011;56800;52.142;5.364;2022-12-01T13:36:31;43.77;;;22.80;;
69594;SDS011;56800;52.142;5.364;2022-12-01T13:41:58;46.00;;;24.27;;
69594;SDS011;56800;52.142;5.364;2022-12-01T13:44:41;43.00;;;22.15;;
69594;SDS011;56800;52.142;5.364;2022-12-01T13:57:29;43.55;;;21.88;;
69594;SDS011;56800;52.142;5.364;2022-12-01T14:02:28;43.97;;;22.97;;
69594;SDS011;56800;52.142;5.364;2022-12-01T14:07:48;46.92;;;22.75;;
69594;SDS011;56800;52.142;5.364;2022-12-01T14:10:24;45.53;;;22.80;;
69594;SDS011;56800;52.142;5.364;2022-12-01T14:12:55;45.35;;;22.17;;
69594;SDS011;56800;52.142;5.364;2022-12-01T14:15:32;44.67;;;21.97;;
69594;SDS011;56800;52.142;5.364;2022-12-01T14:20:43;45.47;;;22.83;;
69594;SDS011;56800;52.142;5.364;2022-12-01T14:26:17;47.13;;;22.52;;
69594;SDS011;56800;52.142;5.364;2022-12-01T14:29:07;41.00;;;20.80;;
69594;SDS011;56800;52.142;5.364;2022-12-01T14:34:01;43.35;;;23.33;;
69594;SDS011;56800;52.142;5.364;2022-12-01T14:36:41;44.75;;;20.83;;
69594;SDS011;56800;52.142;5.364;2022-12-01T14:39:14;44.88;;;21.88;;
69594;SDS011;56800;52.142;5.364;2022-12-01T14:41:47;45.53;;;21.63;;
69594;SDS011;56800;52.142;5.364;2022-12-01T14:47:05;43.80;;;20.85;;
69594;SDS011;56800;52.142;5.364;2022-12-01T14:49:43;45.45;;;20.88;;
69594;SDS011;56800;52.142;5.364;2022-12-01T14:52:34;41.75;;;21.33;;
69594;SDS011;56800;52.142;5.364;2022-12-01T14:55:05;43.93;;;21.23;;
69594;SDS011;56800;52.142;5.364;2022-12-01T14:57:40;49.03;;;23.02;;
69594;SDS011;56800;52.142;5.364;2022-12-01T15:00:14;40.33;;;20.08;;
69594;SDS011;56800;52.142;5.364;2022-12-01T15:02:53;39.50;;;20.75;;
69594;SDS011;56800;52.142;5.364;2022-12-01T15:05:22;46.97;;;22.42;;
69594;SDS011;56800;52.142;5.364;2022-12-01T15:07:59;41.07;;;20.50;;
69594;SDS011;56800;52.142;5.364;2022-12-01T15:10:59;44.53;;;21.73;;
69594;SDS011;56800;52.142;5.364;2022-12-01T15:13:54;42.15;;;21.42;;
69594;SDS011;56800;52.142;5.364;2022-12-01T15:16:27;43.97;;;21.67;;
69594;SDS011;56800;52.142;5.364;2022-12-01T15:18:56;45.13;;;21.50;;
69594;SDS011;56800;52.142;5.364;2022-12-01T15:21:29;50.87;;;22.33;;
69594;SDS011;56800;52.142;5.364;2022-12-01T15:23:58;40.92;;;21.50;;
69594;SDS011;56800;52.142;5.364;2022-12-01T15:26:30;38.55;;;20.60;;
69594;SDS011;56800;52.142;5.364;2022-12-01T15:29:03;48.58;;;20.92;;
69594;SDS011;56800;52.142;5.364;2022-12-01T15:31:30;42.17;;;21.02;;
69594;SDS011;56800;52.142;5.364;2022-12-01T15:33:59;41.37;;;20.67;;
69594;SDS011;56800;52.142;5.364;2022-12-01T15:36:25;39.28;;;21.02;;
69594;SDS011;56800;52.142;5.364;2022-12-01T15:38:52;48.20;;;21.58;;
69594;SDS011;56800;52.142;5.364;2022-12-01T15:41:20;40.88;;;19.58;;
69594;SDS011;56800;52.142;5.364;2022-12-01T15:43:57;44.05;;;21.42;;
69594;SDS011;56800;52.142;5.364;2022-12-01T15:46:27;47.77;;;22.47;;
69594;SDS011;56800;52.142;5.364;2022-12-01T15:49:15;43.83;;;20.90;;
69594;SDS011;56800;52.142;5.364;2022-12-01T15:51:49;44.50;;;21.02;;
69594;SDS011;56800;52.142;5.364;2022-12-01T15:54:21;49.15;;;22.52;;
69594;SDS011;56800;52.142;5.364;2022-12-01T15:56:53;41.97;;;21.42;;
69594;SDS011;56800;52.142;5.364;2022-12-01T15:59:29;41.80;;;20.47;;
69594;SDS011;56800;52.142;5.364;2022-12-01T16:01:56;43.75;;;20.65;;
69594;SDS011;56800;52.142;5.364;2022-12-01T16:04:24;42.78;;;20.85;;
69594;SDS011;56800;52.142;5.364;2022-12-01T16:06:58;46.30;;;20.98;;
69594;SDS011;56800;52.142;5.364;2022-12-01T16:09:34;48.22;;;20.90;;
69594;SDS011;56800;52.142;5.364;2022-12-01T16:12:15;45.10;;;20.20;;
69594;SDS011;56800;52.142;5.364;2022-12-01T16:17:48;47.42;;;22.35;;
69594;SDS011;56800;52.142;5.364;2022-12-01T16:22:52;41.50;;;20.95;;
69594;SDS011;56800;52.142;5.364;2022-12-01T16:27:56;42.63;;;21.10;;
69594;SDS011;56800;52.142;5.364;2022-12-01T16:30:24;40.92;;;20.85;;
69594;SDS011;56800;52.142;5.364;2022-12-01T16:33:16;47.70;;;21.10;;
69594;SDS011;56800;52.142;5.364;2022-12-01T16:35:48;41.13;;;19.58;;
69594;SDS011;56800;52.142;5.364;2022-12-01T16:38:20;44.93;;;21.60;;
69594;SDS011;56800;52.142;5.364;2022-12-01T16:40:49;45.92;;;21.52;;
69594;SDS011;56800;52.142;5.364;2022-12-01T16:43:21;41.22;;;20.15;;
69594;SDS011;56800;52.142;5.364;2022-12-01T16:45:50;45.47;;;20.80;;
69594;SDS011;56800;52.142;5.364;2022-12-01T16:48:23;44.13;;;21.08;;
69594;SDS011;56800;52.142;5.364;2022-12-01T16:50:50;46.03;;;22.00;;
69594;SDS011;56800;52.142;5.364;2022-12-01T16:53:18;43.45;;;20.83;;
69594;SDS011;56800;52.142;5.364;2022-12-01T16:58:21;40.92;;;20.13;;
69594;SDS011;56800;52.142;5.364;2022-12-01T17:00:48;44.78;;;20.48;;
69594;SDS011;56800;52.142;5.364;2022-12-01T17:03:19;42.43;;;20.70;;
69594;SDS011;56800;52.142;5.364;2022-12-01T17:05:47;42.80;;;20.33;;
69594;SDS011;56800;52.142;5.364;2022-12-01T17:08:14;43.90;;;20.63;;
69594;SDS011;56800;52.142;5.364;2022-12-01T17:10:42;41.22;;;20.42;;
69594;SDS011;56800;52.142;5.364;2022-12-01T17:13:10;42.00;;;20.40;;
69594;SDS011;56800;52.142;5.364;2022-12-01T17:15:45;43.73;;;20.80;;